PWSweather.com
Personal Weather Stations
Station Observations
WILS01
Leuven, WilseleBE 3012

LeuvenWilseleBE 3012

Lat: 50.89518, Lon: 4.69741

Elevation: 120

Station Type: DAVIS VP2

Latest ConditionsUpdated 6:34:54 AM GMT+01:01 Thursday, May 7, 2015
Currently Today's Max Today's Min Today's Average
Temperature 49.6°F9.8°C 51.4°F10.8°C 48.4°F9.1°C 49.9°F9.9°C
Dew Point 45.0°F7.2°C 45.7°F7.6°C 43.7°F6.5°C 44.5°F6.9°C
Winds 3.1 mph SW5.0 kmh SW 4.9 mph SW7.9 kmh SW - 3.8 mph 6.1 kmh
Wind Gusts 2.5 mph4.0 kmh 5.8 mph9.3 kmh - -
Humidity 84% 86% 76% 82%
Pressure 30.02 in1016.6 mb 30.02 in1016.6 mb 29.95 in1014.2 mb -
Hour Temp Dew Point Humidity Winds Wind Gusts Pressure Precip Precip Rate Daily Precip Total
06:34 AM 49.6°F9.8°C 45.0°F7.2°C 84% 3.1 mph SW5.0 kmh SW 2.5 mph4.0 kmh 30.02 in1016.6 mb - 0.00 in0.0 mm 0.00 in0.0 mm
06:24 AM 49.5°F9.7°C 45.1°F7.3°C 85% 4.0 mph SW6.4 kmh SW 3.6 mph5.8 kmh 30.02 in1016.6 mb - 0.00 in0.0 mm 0.00 in0.0 mm
06:14 AM 48.9°F9.4°C 44.6°F7.0°C 85% 2.9 mph SW4.7 kmh SW 2.9 mph4.7 kmh 30.01 in1016.3 mb - 0.00 in0.0 mm 0.00 in0.0 mm
06:04 AM 48.6°F9.2°C 44.6°F7.0°C 86% 3.8 mph SW6.1 kmh SW 4.0 mph6.4 kmh 30.01 in1016.3 mb - 0.00 in0.0 mm 0.00 in0.0 mm
05:54 AM 48.6°F9.2°C 44.6°F7.0°C 86% 2.9 mph SW4.7 kmh SW 2.5 mph4.0 kmh 30.01 in1016.3 mb - 0.00 in0.0 mm 0.00 in0.0 mm
05:43 AM 48.6°F9.2°C 44.2°F6.8°C 85% 4.0 mph SW6.4 kmh SW 3.4 mph5.5 kmh 30.01 in1016.3 mb - 0.00 in0.0 mm 0.00 in0.0 mm
05:33 AM 48.4°F9.1°C 44.1°F6.7°C 85% 3.6 mph SW5.8 kmh SW 4.0 mph6.4 kmh 30.00 in1015.9 mb - 0.00 in0.0 mm 0.00 in0.0 mm
05:23 AM 48.4°F9.1°C 44.1°F6.7°C 85% 3.4 mph SW5.5 kmh SW 3.6 mph5.8 kmh 30.00 in1015.9 mb - 0.00 in0.0 mm 0.00 in0.0 mm
05:12 AM 48.6°F9.2°C 44.2°F6.8°C 85% 4.0 mph SW6.4 kmh SW 4.3 mph6.9 kmh 29.99 in1015.6 mb - 0.00 in0.0 mm 0.00 in0.0 mm
05:02 AM 48.6°F9.2°C 44.2°F6.8°C 85% 2.9 mph SW4.7 kmh SW 4.7 mph7.6 kmh 29.99 in1015.6 mb - 0.00 in0.0 mm 0.00 in0.0 mm
04:52 AM 48.6°F9.2°C 44.1°F6.7°C 84% 2.9 mph SW4.7 kmh SW 3.4 mph5.5 kmh 29.99 in1015.6 mb - 0.00 in0.0 mm 0.00 in0.0 mm
04:42 AM 48.7°F9.3°C 44.1°F6.7°C 84% 3.8 mph SW6.1 kmh SW 3.8 mph6.1 kmh 29.99 in1015.6 mb - 0.00 in0.0 mm 0.00 in0.0 mm
04:31 AM 48.9°F9.4°C 44.2°F6.8°C 83% 4.0 mph SW6.4 kmh SW 2.9 mph4.7 kmh 29.99 in1015.6 mb - 0.00 in0.0 mm 0.00 in0.0 mm
04:21 AM 49.3°F9.6°C 44.4°F6.9°C 83% 3.6 mph SW5.8 kmh SW 4.5 mph7.2 kmh 29.99 in1015.6 mb - 0.00 in0.0 mm 0.00 in0.0 mm
04:11 AM 49.3°F9.6°C 44.4°F6.9°C 82% 3.6 mph S5.8 kmh S 3.4 mph5.5 kmh 29.99 in1015.6 mb - 0.00 in0.0 mm 0.00 in0.0 mm
04:01 AM 49.6°F9.8°C 44.4°F6.9°C 82% 4.0 mph SW6.4 kmh SW 4.7 mph7.6 kmh 29.99 in1015.6 mb - 0.00 in0.0 mm 0.00 in0.0 mm
03:50 AM 49.8°F9.9°C 44.2°F6.8°C 81% 4.9 mph SW7.9 kmh SW 5.1 mph8.2 kmh 29.98 in1015.2 mb - 0.00 in0.0 mm 0.00 in0.0 mm
03:40 AM 50.0°F10.0°C 44.4°F6.9°C 81% 4.9 mph SW7.9 kmh SW 4.9 mph7.9 kmh 29.98 in1015.2 mb - 0.00 in0.0 mm 0.00 in0.0 mm
03:30 AM 50.2°F10.1°C 44.2°F6.8°C 80% 4.9 mph SW7.9 kmh SW 4.9 mph7.9 kmh 29.98 in1015.2 mb - 0.00 in0.0 mm 0.00 in0.0 mm
03:19 AM 50.2°F10.1°C 44.2°F6.8°C 80% 4.9 mph SW7.9 kmh SW 5.1 mph8.2 kmh 29.98 in1015.2 mb - 0.00 in0.0 mm 0.00 in0.0 mm
03:09 AM 50.4°F10.2°C 44.4°F6.9°C 80% 4.9 mph SW7.9 kmh SW 5.8 mph9.3 kmh 29.98 in1015.2 mb - 0.00 in0.0 mm 0.00 in0.0 mm
02:58 AM 50.4°F10.2°C 44.6°F7.0°C 80% 4.9 mph SW7.9 kmh SW 4.5 mph7.2 kmh 29.98 in1015.2 mb - 0.00 in0.0 mm 0.00 in0.0 mm
02:48 AM 50.4°F10.2°C 44.4°F6.9°C 80% 4.5 mph SW7.2 kmh SW 4.5 mph7.2 kmh 29.97 in1014.9 mb - 0.00 in0.0 mm 0.00 in0.0 mm
02:38 AM 50.4°F10.2°C 44.4°F6.9°C 80% 4.0 mph SW6.4 kmh SW 4.9 mph7.9 kmh 29.97 in1014.9 mb - 0.00 in0.0 mm 0.00 in0.0 mm
02:28 AM 50.5°F10.3°C 44.6°F7.0°C 80% 4.9 mph SW7.9 kmh SW 4.5 mph7.2 kmh 29.96 in1014.6 mb - 0.00 in0.0 mm 0.00 in0.0 mm
02:17 AM 50.5°F10.3°C 44.6°F7.0°C 80% 2.9 mph SW4.7 kmh SW 4.3 mph6.9 kmh 29.96 in1014.6 mb - 0.00 in0.0 mm 0.00 in0.0 mm
02:07 AM 50.5°F10.3°C 44.2°F6.8°C 79% 4.0 mph SW6.4 kmh SW 2.7 mph4.3 kmh 29.97 in1014.9 mb - 0.00 in0.0 mm 0.00 in0.0 mm
01:56 AM 50.5°F10.3°C 44.1°F6.7°C 78% 3.6 mph SW5.8 kmh SW 3.4 mph5.5 kmh 29.96 in1014.6 mb - 0.00 in0.0 mm 0.00 in0.0 mm
01:46 AM 50.7°F10.4°C 44.1°F6.7°C 78% 4.9 mph SW7.9 kmh SW 4.3 mph6.9 kmh 29.96 in1014.6 mb - 0.00 in0.0 mm 0.00 in0.0 mm
01:36 AM 50.5°F10.3°C 44.2°F6.8°C 79% 4.0 mph SW6.4 kmh SW 4.5 mph7.2 kmh 29.96 in1014.6 mb - 0.00 in0.0 mm 0.00 in0.0 mm
01:25 AM 50.5°F10.3°C 45.0°F7.2°C 80% 3.4 mph SW5.5 kmh SW 3.8 mph6.1 kmh 29.96 in1014.6 mb - 0.00 in0.0 mm 0.00 in0.0 mm
01:15 AM 50.9°F10.5°C 44.8°F7.1°C 79% 2.0 mph SSW3.2 kmh SSW 2.9 mph4.7 kmh 29.96 in1014.6 mb - 0.00 in0.0 mm 0.00 in0.0 mm
01:05 AM 51.4°F10.8°C 44.1°F6.7°C 76% 3.6 mph SW5.8 kmh SW 2.5 mph4.0 kmh 29.96 in1014.6 mb - 0.00 in0.0 mm 0.00 in0.0 mm
12:54 AM 51.1°F10.6°C 43.7°F6.5°C 76% 4.5 mph SW7.2 kmh SW 4.9 mph7.9 kmh 29.96 in1014.6 mb - 0.00 in0.0 mm 0.00 in0.0 mm
12:44 AM 50.5°F10.3°C 44.4°F6.9°C 79% 3.6 mph SW5.8 kmh SW 4.7 mph7.6 kmh 29.96 in1014.6 mb - 0.00 in0.0 mm 0.00 in0.0 mm
12:34 AM 50.5°F10.3°C 45.5°F7.5°C 82% 2.9 mph SW4.7 kmh SW 3.4 mph5.5 kmh 29.96 in1014.6 mb - 0.00 in0.0 mm 0.00 in0.0 mm
12:24 AM 50.7°F10.4°C 45.7°F7.6°C 82% 2.9 mph WSW4.7 kmh WSW 3.1 mph5.0 kmh 29.96 in1014.6 mb - 0.00 in0.0 mm 0.00 in0.0 mm
12:13 AM 50.7°F10.4°C 45.5°F7.5°C 82% 2.9 mph SW4.7 kmh SW 2.5 mph4.0 kmh 29.96 in1014.6 mb - 0.00 in0.0 mm 0.00 in0.0 mm
12:03 AM 50.9°F10.5°C 45.3°F7.4°C 81% 2.0 mph SW3.2 kmh SW 2.7 mph4.3 kmh 29.95 in1014.2 mb - 0.00 in0.0 mm 0.00 in0.0 mm